Time;durP1;ratioP1;P1;durP2;ratioP2;P2;SDS_P1;SDS_P2;PMS_P1;PMS_P2;Temp;Humidity;BMP_temperature;BMP_pressure;BME280_temperature;BME280_humidity;BME280_pressure;Samples;Min_cycle;Max_cycle;Signal;HPM_P1;HPM_P2
2022/01/31 00:02:24;;;;;;;59.90;11.43;;;3.80;99.90;;;;;;5068322;28;20056;-71
2022/01/31 00:04:49;;;;;;;56.78;10.98;;;3.80;99.90;;;;;;5070843;28;20121;-66
2022/01/31 00:07:15;;;;;;;74.60;12.52;;;3.80;99.90;;;;;;5070120;28;20050;-68
2022/01/31 00:09:42;;;;;;;58.50;12.32;;;3.80;99.90;;;;;;5066140;28;20047;-69
2022/01/31 00:12:15;;;;;;;54.67;11.88;;;3.80;99.90;;;;;;5069723;28;20048;-75
2022/01/31 00:14:43;;;;;;;80.35;14.27;;;3.80;99.90;;;;;;5070724;28;20048;-68
2022/01/31 00:17:10;;;;;;;52.95;12.10;;;3.80;99.90;;;;;;5070024;28;20079;-68
2022/01/31 00:19:37;;;;;;;68.88;13.43;;;3.80;99.90;;;;;;5055039;28;20083;-70
2022/01/31 00:22:07;;;;;;;54.47;12.15;;;3.80;99.90;;;;;;5057664;28;20028;-66
2022/01/31 00:24:36;;;;;;;70.07;13.80;;;3.90;99.90;;;;;;5064143;28;20071;-68
2022/01/31 00:27:06;;;;;;;61.03;14.32;;;3.90;99.90;;;;;;5055658;28;20052;-68
2022/01/31 00:29:32;;;;;;;51.53;13.82;;;3.90;99.90;;;;;;5053529;28;20040;-69
2022/01/31 00:31:58;;;;;;;65.65;15.57;;;3.90;99.90;;;;;;5068606;28;20403;-69
2022/01/31 00:34:24;;;;;;;56.25;14.50;;;3.90;99.90;;;;;;5057836;28;20032;-69
2022/01/31 00:36:50;;;;;;;73.50;16.15;;;4.00;99.90;;;;;;5060057;28;20242;-67
2022/01/31 00:39:16;;;;;;;59.45;16.27;;;4.00;99.90;;;;;;5066434;28;20457;-67
2022/01/31 00:41:41;;;;;;;71.18;16.00;;;4.00;99.90;;;;;;5069946;28;20041;-67
2022/01/31 00:46:52;;;;;;;72.55;17.33;;;4.10;99.90;;;;;;5064047;28;20070;-68
2022/01/31 00:49:35;;;;;;;71.53;17.95;;;4.10;99.90;;;;;;5057345;28;20072;-67
2022/01/31 00:52:01;;;;;;;68.50;18.88;;;4.20;99.90;;;;;;5053744;28;20048;-68
2022/01/31 00:54:27;;;;;;;67.28;19.77;;;4.20;99.90;;;;;;5063722;28;20040;-69
2022/01/31 00:56:52;;;;;;;62.38;19.17;;;4.20;99.90;;;;;;5052988;28;20036;-67
2022/01/31 00:59:18;;;;;;;76.20;20.02;;;4.20;99.90;;;;;;5056804;28;20039;-68
2022/01/31 01:01:45;;;;;;;65.13;21.27;;;4.30;99.90;;;;;;5082728;28;20071;-69
2022/01/31 01:04:10;;;;;;;69.10;22.27;;;4.30;99.90;;;;;;5066789;28;20542;-69
2022/01/31 01:06:36;;;;;;;73.25;23.30;;;4.20;99.90;;;;;;5068520;28;20124;-65
2022/01/31 01:09:02;;;;;;;76.68;23.02;;;4.30;99.90;;;;;;5069656;28;20066;-67
2022/01/31 01:11:28;;;;;;;69.60;23.30;;;4.20;99.90;;;;;;5052760;28;20087;-68
2022/01/31 01:13:53;;;;;;;87.28;25.67;;;4.30;99.90;;;;;;5064204;28;20044;-68
2022/01/31 01:16:19;;;;;;;89.43;22.88;;;4.20;99.90;;;;;;5066709;28;20037;-68
2022/01/31 01:18:44;;;;;;;86.13;25.92;;;4.20;99.90;;;;;;5048614;28;20392;-68
2022/01/31 01:21:10;;;;;;;92.78;26.83;;;4.20;99.90;;;;;;5051786;28;20525;-71
2022/01/31 01:23:35;;;;;;;97.18;27.30;;;4.20;99.90;;;;;;5098192;28;20051;-69
2022/01/31 01:26:01;;;;;;;102.68;30.55;;;4.20;99.90;;;;;;5060845;28;20504;-71
2022/01/31 01:28:27;;;;;;;101.80;28.77;;;4.10;99.90;;;;;;5050417;28;20116;-69
2022/01/31 01:30:55;;;;;;;97.82;28.27;;;4.00;99.90;;;;;;5056448;28;20487;-66
2022/01/31 01:33:22;;;;;;;89.43;28.70;;;3.90;99.90;;;;;;5049780;28;20048;-68
2022/01/31 01:35:50;;;;;;;89.22;29.27;;;3.90;99.90;;;;;;5059145;28;20044;-67
2022/01/31 01:38:23;;;;;;;98.68;28.70;;;3.80;99.90;;;;;;5066431;28;20154;-68
2022/01/31 01:40:48;;;;;;;105.38;32.60;;;3.80;99.90;;;;;;5067564;28;20119;-67
2022/01/31 01:43:15;;;;;;;109.68;33.90;;;3.80;99.90;;;;;;5063318;28;20124;-69
2022/01/31 01:45:42;;;;;;;104.68;29.95;;;3.70;99.90;;;;;;5060658;28;20044;-65
2022/01/31 01:48:09;;;;;;;111.75;31.65;;;3.70;99.90;;;;;;5100703;28;20036;-67
2022/01/31 01:50:37;;;;;;;110.50;32.38;;;3.70;99.90;;;;;;5052510;28;20044;-67
2022/01/31 01:53:03;;;;;;;101.80;30.90;;;3.80;99.90;;;;;;5069357;28;20052;-70
2022/01/31 01:55:29;;;;;;;100.80;30.40;;;3.70;99.90;;;;;;5069194;28;20045;-65
2022/01/31 01:57:56;;;;;;;111.00;32.50;;;3.70;99.90;;;;;;5066663;28;20394;-69
2022/01/31 02:00:26;;;;;;;91.68;27.33;;;3.70;99.90;;;;;;5052511;28;20036;-66
2022/01/31 02:02:53;;;;;;;100.90;31.40;;;3.70;99.90;;;;;;5056894;28;20044;-69
2022/01/31 02:05:19;;;;;;;95.97;25.70;;;3.70;99.90;;;;;;5065074;28;20032;-68
2022/01/31 02:07:45;;;;;;;89.65;29.65;;;3.70;99.90;;;;;;5068484;28;20127;-70
2022/01/31 02:10:11;;;;;;;92.03;27.33;;;3.80;99.90;;;;;;5067740;28;20040;-72
2022/01/31 02:12:38;;;;;;;84.05;28.52;;;3.80;99.90;;;;;;5065804;28;20063;-76
2022/01/31 02:15:05;;;;;;;97.50;30.15;;;3.80;99.90;;;;;;5067328;28;20072;-71
2022/01/31 02:17:31;;;;;;;92.50;27.48;;;3.80;99.90;;;;;;5069181;28;20037;-69
2022/01/31 02:19:56;;;;;;;87.22;25.73;;;3.70;99.90;;;;;;5061776;28;20033;-67
2022/01/31 02:22:22;;;;;;;88.30;26.80;;;3.80;99.90;;;;;;5066197;28;20510;-68
2022/01/31 02:24:47;;;;;;;91.85;26.08;;;3.80;99.90;;;;;;5071593;28;20036;-68
2022/01/31 02:27:13;;;;;;;89.38;28.85;;;3.80;99.90;;;;;;5052974;28;20435;-73
2022/01/31 02:29:39;;;;;;;75.85;23.73;;;3.80;99.90;;;;;;5069626;28;20368;-70
2022/01/31 02:32:04;;;;;;;81.60;25.25;;;3.80;99.90;;;;;;5063452;28;20037;-68
2022/01/31 02:34:30;;;;;;;72.43;22.33;;;3.80;99.90;;;;;;5063393;28;20479;-66
2022/01/31 02:36:55;;;;;;;63.55;20.75;;;3.80;99.90;;;;;;5071555;28;20144;-68
2022/01/31 02:39:21;;;;;;;65.38;18.98;;;3.80;99.90;;;;;;5051527;28;20045;-68
2022/01/31 02:41:48;;;;;;;65.68;21.23;;;3.80;99.90;;;;;;5061677;28;20198;-68
2022/01/31 02:44:17;;;;;;;67.05;20.55;;;3.80;99.90;;;;;;5069007;28;20036;-71
2022/01/31 02:46:50;;;;;;;66.07;19.42;;;3.90;99.90;;;;;;5060820;28;20071;-72
2022/01/31 02:49:19;;;;;;;63.92;19.45;;;3.90;99.90;;;;;;5059012;28;20128;-70
2022/01/31 02:51:49;;;;;;;58.78;18.27;;;3.90;99.90;;;;;;5071798;28;20548;-69
2022/01/31 02:54:15;;;;;;;59.88;18.20;;;3.90;99.90;;;;;;5067256;28;20086;-67
2022/01/31 02:56:41;;;;;;;59.75;18.73;;;3.90;99.90;;;;;;5053814;28;20044;-71
2022/01/31 02:59:07;;;;;;;51.75;16.85;;;4.00;99.90;;;;;;5072053;28;20059;-65
2022/01/31 03:01:37;;;;;;;57.47;16.95;;;4.00;99.90;;;;;;5070025;28;20033;-69
2022/01/31 03:04:04;;;;;;;60.78;20.23;;;4.00;99.90;;;;;;5070611;28;20044;-72
2022/01/31 03:06:29;;;;;;;64.10;20.80;;;4.10;99.90;;;;;;5075443;28;20530;-71
2022/01/31 03:08:55;;;;;;;60.30;19.95;;;4.20;99.90;;;;;;5061707;28;20036;-72
2022/01/31 03:11:21;;;;;;;60.05;19.45;;;4.20;99.90;;;;;;5068244;28;20111;-71
2022/01/31 03:13:46;;;;;;;78.13;21.05;;;4.30;99.90;;;;;;5070697;28;20131;-69
2022/01/31 03:16:12;;;;;;;70.03;20.80;;;4.40;99.90;;;;;;5064060;28;20040;-71
2022/01/31 03:18:37;;;;;;;70.10;20.23;;;4.30;99.90;;;;;;5051211;28;20385;-71
2022/01/31 03:21:03;;;;;;;71.43;22.83;;;4.60;99.90;;;;;;5051788;28;20119;-75
2022/01/31 03:23:28;;;;;;;69.43;21.27;;;4.60;99.90;;;;;;5051747;28;20044;-69
2022/01/31 03:25:54;;;;;;;77.97;23.00;;;4.70;99.90;;;;;;5051767;28;20044;-72
2022/01/31 03:28:20;;;;;;;70.75;21.45;;;4.80;99.90;;;;;;5055426;28;20045;-67
2022/01/31 03:30:47;;;;;;;57.30;15.57;;;4.90;99.90;;;;;;5062771;28;20075;-69
2022/01/31 03:33:13;;;;;;;59.53;15.40;;;5.00;99.90;;;;;;5051490;28;20041;-71
2022/01/31 03:35:38;;;;;;;65.75;15.48;;;5.10;99.90;;;;;;5050753;28;20037;-71
2022/01/31 03:38:04;;;;;;;71.15;16.95;;;5.20;99.90;;;;;;5065469;28;20170;-69
2022/01/31 03:40:29;;;;;;;52.15;14.27;;;5.20;99.90;;;;;;5069659;28;20119;-68
2022/01/31 03:42:55;;;;;;;43.40;9.98;;;5.30;99.90;;;;;;5070905;28;20066;-70
2022/01/31 03:45:21;;;;;;;29.58;6.72;;;5.40;99.90;;;;;;5070771;28;20423;-68
2022/01/31 03:47:46;;;;;;;21.92;5.20;;;5.50;99.90;;;;;;5056538;28;20045;-69
2022/01/31 03:50:17;;;;;;;38.38;7.00;;;5.60;99.90;;;;;;5052561;28;20048;-74
2022/01/31 03:52:43;;;;;;;26.65;4.32;;;5.90;99.90;;;;;;5053565;28;20040;-72
2022/01/31 03:55:13;;;;;;;26.17;4.63;;;6.00;99.90;;;;;;5047628;28;20334;-71
2022/01/31 03:57:39;;;;;;;33.00;5.47;;;6.00;99.90;;;;;;5070016;28;20112;-70
2022/01/31 04:00:09;;;;;;;38.75;5.10;;;6.00;99.90;;;;;;5069035;28;20182;-73
2022/01/31 04:02:34;;;;;;;28.35;4.65;;;6.10;99.90;;;;;;5095527;28;20111;-72
2022/01/31 04:05:00;;;;;;;41.50;5.43;;;6.20;99.90;;;;;;5051379;28;20590;-73
2022/01/31 04:07:25;;;;;;;26.85;4.28;;;6.20;99.90;;;;;;5052619;28;20094;-71
2022/01/31 04:09:51;;;;;;;30.50;3.50;;;6.30;99.90;;;;;;5041614;28;20132;-74
2022/01/31 04:12:16;;;;;;;24.70;4.28;;;6.30;99.90;;;;;;5066065;28;20057;-75
2022/01/31 04:14:42;;;;;;;17.13;4.00;;;6.20;99.90;;;;;;5039153;28;20044;-72
2022/01/31 04:17:10;;;;;;;35.20;4.90;;;6.10;99.90;;;;;;5054178;28;20041;-69
2022/01/31 04:19:37;;;;;;;26.33;4.25;;;6.10;99.90;;;;;;5052363;28;20480;-73
2022/01/31 04:22:03;;;;;;;34.72;3.95;;;6.20;99.90;;;;;;5066394;28;20036;-76
2022/01/31 04:24:33;;;;;;;36.88;4.63;;;6.30;99.90;;;;;;5066108;28;20028;-74
2022/01/31 04:27:05;;;;;;;32.58;4.03;;;6.40;99.90;;;;;;5068372;28;20488;-75
2022/01/31 04:29:33;;;;;;;23.63;3.95;;;6.30;99.90;;;;;;5062382;28;20049;-70
2022/01/31 04:31:58;;;;;;;19.30;3.67;;;6.30;99.90;;;;;;5057737;28;20047;-69
2022/01/31 04:34:24;;;;;;;25.70;3.78;;;6.20;99.90;;;;;;5084849;28;20123;-71
2022/01/31 04:36:50;;;;;;;29.70;4.15;;;6.10;99.90;;;;;;5091215;28;20044;-69
2022/01/31 04:39:18;;;;;;;35.45;4.95;;;6.00;99.90;;;;;;5054352;28;20449;-70
2022/01/31 04:41:45;;;;;;;32.40;4.53;;;6.00;99.90;;;;;;5051042;28;20064;-70
2022/01/31 04:44:11;;;;;;;26.10;3.83;;;6.00;99.90;;;;;;5056561;28;20037;-79
2022/01/31 04:46:37;;;;;;;28.45;3.58;;;5.90;99.90;;;;;;5057401;28;20070;-69
2022/01/31 04:49:02;;;;;;;17.45;3.08;;;5.80;99.90;;;;;;5066637;28;20041;-72
2022/01/31 04:51:28;;;;;;;25.90;2.90;;;5.80;99.90;;;;;;5069943;28;20036;-72
2022/01/31 04:53:53;;;;;;;30.77;3.92;;;5.90;99.90;;;;;;5063952;28;20115;-74
2022/01/31 04:56:19;;;;;;;17.83;3.05;;;5.90;99.90;;;;;;5068505;28;20040;-74
2022/01/31 04:58:45;;;;;;;24.77;3.15;;;5.90;99.90;;;;;;5067438;28;20127;-67
2022/01/31 05:01:10;;;;;;;22.50;3.40;;;6.00;99.90;;;;;;5067067;28;20391;-73
2022/01/31 05:03:36;;;;;;;26.00;3.33;;;5.90;99.90;;;;;;5068729;28;20044;-69
2022/01/31 05:06:02;;;;;;;30.65;4.07;;;5.90;99.90;;;;;;5064825;28;20040;-69
2022/01/31 05:08:29;;;;;;;28.25;3.85;;;5.80;99.90;;;;;;5047948;28;20040;-70
2022/01/31 05:10:55;;;;;;;32.17;3.88;;;5.80;99.90;;;;;;5075544;28;20498;-69
2022/01/31 05:13:21;;;;;;;41.15;3.85;;;5.80;99.90;;;;;;5068048;28;20041;-69
2022/01/31 05:15:47;;;;;;;33.35;3.78;;;5.80;99.90;;;;;;5067438;28;20039;-71
2022/01/31 05:18:13;;;;;;;24.50;2.88;;;5.70;99.90;;;;;;5069258;28;20041;-68
2022/01/31 05:20:39;;;;;;;33.45;4.70;;;5.80;99.90;;;;;;5059051;28;20049;-69
2022/01/31 05:23:06;;;;;;;30.25;3.38;;;5.80;99.90;;;;;;5055626;28;20048;-70
2022/01/31 05:25:32;;;;;;;34.35;4.45;;;5.80;99.90;;;;;;5064509;28;20032;-75
2022/01/31 05:27:58;;;;;;;17.58;2.63;;;5.90;99.90;;;;;;5067826;28;20062;-73
2022/01/31 05:30:23;;;;;;;19.38;2.53;;;5.70;99.90;;;;;;5064697;28;20301;-71
2022/01/31 05:32:49;;;;;;;8.27;1.48;;;5.50;99.90;;;;;;5057339;28;20052;-71
2022/01/31 05:35:15;;;;;;;6.22;1.20;;;5.30;99.90;;;;;;5056100;28;20125;-70
2022/01/31 05:37:42;;;;;;;10.25;1.55;;;5.00;99.90;;;;;;5052631;28;20036;-69
2022/01/31 05:40:08;;;;;;;10.30;1.95;;;4.90;99.90;;;;;;5051934;28;20041;-70
2022/01/31 05:42:34;;;;;;;17.05;1.92;;;4.80;99.90;;;;;;5062390;28;20227;-76
2022/01/31 05:44:59;;;;;;;14.90;2.03;;;4.80;99.90;;;;;;5055144;28;20041;-71
2022/01/31 05:47:25;;;;;;;22.55;2.60;;;4.80;99.90;;;;;;5068569;28;20048;-70
2022/01/31 05:49:50;;;;;;;21.30;1.77;;;4.80;99.90;;;;;;5065682;28;20083;-67
2022/01/31 05:52:16;;;;;;;13.75;1.80;;;4.80;99.90;;;;;;5068965;28;20399;-74
2022/01/31 05:54:42;;;;;;;15.13;1.45;;;4.80;99.90;;;;;;5067323;28;20119;-70
2022/01/31 05:57:09;;;;;;;18.10;1.80;;;4.70;99.90;;;;;;5057532;28;20577;-71
2022/01/31 05:59:37;;;;;;;20.52;1.92;;;4.80;99.90;;;;;;5060103;28;20434;-73
2022/01/31 06:02:03;;;;;;;19.23;2.50;;;4.80;99.90;;;;;;5053396;28;20044;-70
2022/01/31 06:04:30;;;;;;;23.40;2.40;;;4.80;99.90;;;;;;5072394;28;20037;-72
2022/01/31 06:06:56;;;;;;;22.50;2.03;;;4.80;99.90;;;;;;5069814;28;20033;-69
2022/01/31 06:09:21;;;;;;;23.63;3.10;;;4.90;99.90;;;;;;5064020;28;20055;-73
2022/01/31 06:11:49;;;;;;;21.10;2.38;;;5.00;99.90;;;;;;5072459;28;20441;-66
2022/01/31 06:14:15;;;;;;;15.00;2.05;;;5.00;99.90;;;;;;5071060;28;20036;-66
2022/01/31 06:16:41;;;;;;;19.67;2.83;;;5.00;99.90;;;;;;5052660;28;20064;-72
2022/01/31 06:19:06;;;;;;;25.50;2.60;;;5.10;99.90;;;;;;5062760;28;20044;-70
2022/01/31 06:21:32;;;;;;;16.80;2.22;;;5.10;99.90;;;;;;5071106;28;20411;-73
2022/01/31 06:23:57;;;;;;;22.77;2.95;;;5.10;99.90;;;;;;5069626;28;20139;-74
2022/01/31 06:26:23;;;;;;;19.45;2.97;;;5.10;99.90;;;;;;5054774;28;20354;-74
2022/01/31 06:28:49;;;;;;;20.83;2.88;;;5.20;99.90;;;;;;5083717;28;20105;-68
2022/01/31 06:31:15;;;;;;;25.58;3.42;;;5.20;99.90;;;;;;5069129;28;20131;-72
2022/01/31 06:33:41;;;;;;;28.42;3.35;;;5.20;99.90;;;;;;5066663;28;20701;-70
2022/01/31 06:36:06;;;;;;;15.52;2.03;;;5.30;99.90;;;;;;5086085;28;20072;-71
2022/01/31 06:38:35;;;;;;;24.92;3.13;;;5.30;99.90;;;;;;5055080;28;20063;-72
2022/01/31 06:41:01;;;;;;;9.85;1.73;;;5.30;99.90;;;;;;5066810;28;20078;-72
2022/01/31 06:43:26;;;;;;;20.73;3.08;;;5.30;99.90;;;;;;5068750;28;20072;-73
2022/01/31 06:45:52;;;;;;;25.05;2.22;;;5.30;99.90;;;;;;5068317;28;20459;-69
2022/01/31 06:48:17;;;;;;;18.27;2.50;;;5.20;99.90;;;;;;5069222;28;20059;-70
2022/01/31 06:50:43;;;;;;;11.95;1.70;;;5.20;99.90;;;;;;5067509;28;20053;-69
2022/01/31 06:53:11;;;;;;;16.55;2.08;;;5.30;99.90;;;;;;5052800;28;20138;-74
2022/01/31 06:55:37;;;;;;;16.55;1.73;;;5.20;99.90;;;;;;5068126;28;20090;-70
2022/01/31 06:58:03;;;;;;;12.20;2.00;;;5.20;99.90;;;;;;5050972;28;20041;-71
2022/01/31 07:00:28;;;;;;;15.40;1.55;;;5.10;99.90;;;;;;5061149;28;20229;-69
2022/01/31 07:02:54;;;;;;;11.68;1.23;;;5.10;99.90;;;;;;5060243;28;20036;-71
2022/01/31 07:05:21;;;;;;;15.93;1.75;;;5.10;99.90;;;;;;5068489;28;20131;-71
2022/01/31 07:07:46;;;;;;;10.60;1.70;;;5.10;99.90;;;;;;5043227;28;20454;-72
2022/01/31 07:10:12;;;;;;;19.27;2.85;;;5.10;99.90;;;;;;5063489;28;20041;-71
2022/01/31 07:12:40;;;;;;;10.68;2.00;;;5.00;99.90;;;;;;5088215;28;20044;-73
2022/01/31 07:15:09;;;;;;;12.07;2.00;;;5.10;99.90;;;;;;5066180;28;20037;-74
2022/01/31 07:17:38;;;;;;;21.17;2.67;;;5.20;99.90;;;;;;5064361;28;20048;-70
2022/01/31 07:20:08;;;;;;;31.35;3.53;;;5.10;99.90;;;;;;5059883;28;20036;-71
2022/01/31 07:22:37;;;;;;;7.53;1.55;;;5.20;99.90;;;;;;5056199;28;20040;-74
2022/01/31 07:25:07;;;;;;;18.13;2.83;;;5.20;99.90;;;;;;5061071;28;20047;-74
2022/01/31 07:27:33;;;;;;;23.55;2.58;;;5.30;99.90;;;;;;5096101;28;20052;-72
2022/01/31 07:29:59;;;;;;;22.65;2.67;;;5.30;99.90;;;;;;5057024;28;20048;-73
2022/01/31 07:32:25;;;;;;;12.00;2.20;;;5.30;99.90;;;;;;5059628;28;20343;-74
2022/01/31 07:34:53;;;;;;;21.60;2.03;;;5.20;99.90;;;;;;5051319;28;20033;-71
2022/01/31 07:37:27;;;;;;;24.48;3.22;;;5.20;99.90;;;;;;5055479;28;20040;-73
2022/01/31 07:39:53;;;;;;;23.08;2.55;;;5.30;99.90;;;;;;5051667;28;20546;-72
2022/01/31 07:42:19;;;;;;;23.85;3.72;;;5.30;99.90;;;;;;5062208;28;20161;-75
2022/01/31 07:44:45;;;;;;;18.20;2.58;;;5.30;99.90;;;;;;5093183;28;20127;-74
2022/01/31 07:47:10;;;;;;;31.20;2.92;;;5.40;99.90;;;;;;5058146;28;20135;-71
2022/01/31 07:49:36;;;;;;;27.42;2.88;;;5.40;99.90;;;;;;5056586;28;20043;-71
2022/01/31 07:52:03;;;;;;;17.30;2.00;;;5.40;99.90;;;;;;5060088;28;20169;-68
2022/01/31 07:54:29;;;;;;;29.20;3.97;;;5.40;99.90;;;;;;5065394;28;20033;-76
2022/01/31 07:56:56;;;;;;;31.10;3.65;;;5.50;99.90;;;;;;5062122;28;20041;-71
2022/01/31 07:59:22;;;;;;;19.67;3.75;;;5.50;99.90;;;;;;5056856;28;20506;-72
2022/01/31 08:01:48;;;;;;;36.38;4.25;;;5.60;99.90;;;;;;5058916;28;20039;-70
2022/01/31 08:04:14;;;;;;;25.48;3.33;;;5.60;99.90;;;;;;5060684;28;20028;-72
2022/01/31 08:06:39;;;;;;;30.02;4.18;;;5.70;99.90;;;;;;5049997;28;20438;-74
2022/01/31 08:09:05;;;;;;;35.40;4.15;;;5.70;99.90;;;;;;5060855;28;20041;-72
2022/01/31 08:11:33;;;;;;;41.50;5.03;;;5.70;99.90;;;;;;5053574;28;20040;-75
2022/01/31 08:14:06;;;;;;;47.45;4.97;;;5.70;99.90;;;;;;5063389;28;20102;-71
2022/01/31 08:16:36;;;;;;;36.20;3.90;;;5.70;99.90;;;;;;5054787;28;20522;-72
2022/01/31 08:19:05;;;;;;;37.90;4.53;;;5.70;99.90;;;;;;5060972;28;20041;-74
2022/01/31 08:21:30;;;;;;;27.25;3.55;;;5.80;99.90;;;;;;5054357;28;20181;-73
2022/01/31 08:23:56;;;;;;;27.77;3.33;;;5.80;99.90;;;;;;5062567;28;20036;-77
2022/01/31 08:26:22;;;;;;;34.53;4.80;;;5.80;99.90;;;;;;5060517;28;20044;-76
2022/01/31 08:31:23;;;;;;;39.58;5.13;;;6.10;99.90;;;;;;5062985;28;20044;-74
2022/01/31 08:35:47;;;;;;;25.85;3.33;;;6.10;99.90;;;;;;5046176;28;20048;-75
2022/01/31 08:36:35;;;;;;;31.85;4.03;;;6.10;99.90;;;;;;5046313;28;20056;-74
2022/01/31 08:39:08;;;;;;;39.33;5.10;;;6.10;99.90;;;;;;5064779;28;20039;-76
2022/01/31 08:41:35;;;;;;;29.02;4.57;;;6.10;99.90;;;;;;5057470;28;20123;-76
2022/01/31 08:44:01;;;;;;;22.13;3.97;;;6.10;99.90;;;;;;5086910;28;20037;-71
2022/01/31 08:46:26;;;;;;;39.60;4.78;;;6.10;99.90;;;;;;5048541;28;20036;-77
2022/01/31 08:48:52;;;;;;;37.83;4.32;;;6.20;99.90;;;;;;5051456;28;20084;-77
2022/01/31 08:51:17;;;;;;;32.30;4.55;;;6.20;99.90;;;;;;5060259;28;20047;-73
2022/01/31 08:53:43;;;;;;;33.58;4.05;;;6.10;99.90;;;;;;5052865;28;20442;-75
2022/01/31 08:56:11;;;;;;;32.47;4.20;;;6.20;99.90;;;;;;5089584;28;20036;-71
2022/01/31 08:58:43;;;;;;;40.47;4.93;;;6.20;99.90;;;;;;5054176;28;20036;-76
2022/01/31 09:01:09;;;;;;;32.92;3.88;;;6.10;99.90;;;;;;5056172;28;20107;-76
2022/01/31 09:06:05;;;;;;;19.48;2.90;;;6.10;99.90;;;;;;5062758;28;20037;-75
2022/01/31 09:08:31;;;;;;;17.17;2.38;;;6.10;99.90;;;;;;5056179;28;20477;-75
2022/01/31 09:10:56;;;;;;;19.65;3.00;;;6.20;99.90;;;;;;5052623;28;20132;-76
2022/01/31 09:13:22;;;;;;;14.77;1.63;;;6.10;99.90;;;;;;5057471;28;20048;-73
2022/01/31 09:15:48;;;;;;;21.20;2.45;;;6.10;99.90;;;;;;5070547;28;20552;-73
2022/01/31 09:18:14;;;;;;;14.70;2.30;;;6.10;99.90;;;;;;5061973;28;20050;-73
2022/01/31 09:20:40;;;;;;;19.88;1.92;;;6.10;99.90;;;;;;5061311;28;20068;-75
2022/01/31 09:23:06;;;;;;;14.27;1.92;;;6.10;99.90;;;;;;5057539;28;20032;-74
2022/01/31 09:25:32;;;;;;;19.98;2.95;;;6.10;99.90;;;;;;5058134;28;20033;-76
2022/01/31 09:27:59;;;;;;;14.57;2.13;;;6.20;99.90;;;;;;5070367;28;20419;-74
2022/01/31 09:30:27;;;;;;;15.48;2.55;;;6.30;99.90;;;;;;5047520;28;20559;-75
2022/01/31 09:32:54;;;;;;;20.70;2.53;;;6.30;99.90;;;;;;5053561;28;20562;-74
2022/01/31 09:35:20;;;;;;;14.48;1.58;;;6.30;99.90;;;;;;5094796;28;20041;-75
2022/01/31 09:37:45;;;;;;;26.42;2.67;;;6.40;99.90;;;;;;5064231;28;20479;-71
2022/01/31 09:40:17;;;;;;;14.30;1.70;;;6.30;99.90;;;;;;5062625;28;20041;-73
2022/01/31 09:51:18;;;;;;;16.83;1.98;;;6.30;99.90;;;;;;5061265;28;20045;-77
2022/01/31 09:53:55;;;;;;;17.90;1.52;;;6.30;99.90;;;;;;5055122;28;20032;-78
2022/01/31 09:56:25;;;;;;;21.17;2.10;;;6.30;99.90;;;;;;5071077;28;20045;-72
2022/01/31 09:58:52;;;;;;;11.23;2.08;;;6.40;99.90;;;;;;5093014;28;20036;-74
2022/01/31 10:01:21;;;;;;;13.18;1.85;;;6.40;99.90;;;;;;5073029;28;20029;-75
2022/01/31 10:03:50;;;;;;;14.38;1.90;;;6.50;99.90;;;;;;5054234;28;20503;-72
2022/01/31 10:06:39;;;;;;;17.88;1.35;;;6.40;99.90;;;;;;5072748;28;20037;-73
2022/01/31 10:09:11;;;;;;;16.00;1.90;;;6.40;99.90;;;;;;5072223;28;20048;-74
2022/01/31 10:11:53;;;;;;;18.10;1.83;;;6.50;99.90;;;;;;5063524;28;20458;-72
2022/01/31 10:17:26;;;;;;;9.48;1.35;;;6.60;99.90;;;;;;5060449;28;20514;-73
2022/01/31 10:19:55;;;;;;;16.00;1.58;;;6.70;99.90;;;;;;5064922;28;20089;-73
2022/01/31 10:22:25;;;;;;;17.10;2.30;;;6.70;99.90;;;;;;5053185;28;20036;-71
2022/01/31 10:24:57;;;;;;;12.07;1.27;;;6.80;99.90;;;;;;5073083;28;20048;-75
2022/01/31 10:27:29;;;;;;;10.15;1.45;;;6.90;99.90;;;;;;5065043;28;20044;-72
2022/01/31 10:30:07;;;;;;;17.00;2.17;;;6.90;99.90;;;;;;5071044;28;20043;-72
2022/01/31 10:32:36;;;;;;;14.20;1.77;;;7.00;99.90;;;;;;5064415;28;20048;-74
2022/01/31 10:35:07;;;;;;;10.07;1.63;;;7.10;99.90;;;;;;5068515;28;20400;-73
2022/01/31 10:37:36;;;;;;;15.77;2.55;;;7.20;99.90;;;;;;5069872;28;20048;-74
2022/01/31 10:54:12;;;;;;;20.35;2.20;;;7.40;99.90;;;;;;5053050;28;20404;-72
2022/01/31 10:56:42;;;;;;;17.58;1.95;;;7.30;99.90;;;;;;5052977;28;20051;-72
2022/01/31 10:59:22;;;;;;;13.57;2.03;;;7.30;99.90;;;;;;5062562;28;20041;-75
2022/01/31 11:01:54;;;;;;;13.82;1.73;;;7.20;99.90;;;;;;5067811;28;20051;-74
2022/01/31 11:04:22;;;;;;;13.20;1.80;;;7.20;99.90;;;;;;5052090;28;20112;-76
2022/01/31 11:06:56;;;;;;;15.57;1.67;;;7.20;99.90;;;;;;5062539;28;20087;-74
2022/01/31 11:09:21;;;;;;;18.08;2.65;;;7.20;99.90;;;;;;5095317;28;20037;-70
2022/01/31 11:11:49;;;;;;;18.92;2.72;;;7.20;99.90;;;;;;5054530;28;20083;-74
2022/01/31 11:14:15;;;;;;;12.07;1.17;;;7.20;99.90;;;;;;5068626;28;20044;-76
2022/01/31 11:16:43;;;;;;;15.98;1.90;;;7.20;99.90;;;;;;5069762;28;20119;-72
2022/01/31 11:19:10;;;;;;;9.05;1.40;;;7.10;99.90;;;;;;5066678;28;20041;-75
2022/01/31 11:21:38;;;;;;;7.60;1.33;;;7.10;99.90;;;;;;5070710;28;20044;-77
2022/01/31 11:24:17;;;;;;;7.05;0.93;;;7.10;99.90;;;;;;5070688;28;20115;-69
2022/01/31 11:26:46;;;;;;;16.25;1.50;;;7.00;99.90;;;;;;5051634;28;20044;-74
2022/01/31 11:29:12;;;;;;;10.05;1.50;;;6.90;99.90;;;;;;5046776;28;1045781;-70
2022/01/31 11:31:39;;;;;;;7.45;1.10;;;6.90;99.90;;;;;;5094805;28;20044;-72
2022/01/31 11:34:06;;;;;;;7.88;0.85;;;6.80;99.90;;;;;;5061352;28;20036;-72
2022/01/31 11:36:37;;;;;;;7.07;1.15;;;6.80;99.90;;;;;;5092068;28;20044;-73
2022/01/31 11:39:07;;;;;;;5.75;0.77;;;6.80;99.90;;;;;;5058747;28;20048;-76
2022/01/31 11:41:35;;;;;;;6.43;0.90;;;6.80;99.90;;;;;;5071092;28;20041;-76
2022/01/31 11:44:17;;;;;;;5.82;0.93;;;6.80;99.90;;;;;;5061034;28;20056;-76
2022/01/31 11:46:42;;;;;;;3.25;0.60;;;6.80;99.90;;;;;;5043437;28;20042;-74
2022/01/31 11:49:10;;;;;;;3.28;0.65;;;6.80;99.90;;;;;;5061602;28;20411;-75
2022/01/31 11:51:49;;;;;;;3.50;0.77;;;6.80;99.90;;;;;;5088366;28;20048;-75
2022/01/31 11:54:23;;;;;;;3.55;0.45;;;6.80;99.90;;;;;;5054072;28;20588;-73
2022/01/31 11:56:51;;;;;;;4.80;0.93;;;6.90;99.90;;;;;;5069750;28;20042;-74
2022/01/31 11:59:20;;;;;;;8.10;1.05;;;6.90;99.90;;;;;;5069902;28;20037;-72
2022/01/31 12:01:46;;;;;;;12.32;1.58;;;6.90;99.90;;;;;;5071004;28;20124;-72
2022/01/31 12:04:13;;;;;;;3.92;0.98;;;6.90;99.90;;;;;;5066061;28;20127;-74
2022/01/31 12:06:39;;;;;;;13.80;1.73;;;6.90;99.90;;;;;;5053151;28;20094;-77
2022/01/31 12:09:11;;;;;;;20.73;2.70;;;7.00;99.90;;;;;;5085068;28;20048;-78
2022/01/31 12:12:05;;;;;;;11.88;1.95;;;7.10;99.90;;;;;;5059256;28;20076;-73
2022/01/31 12:14:49;;;;;;;14.65;1.77;;;7.00;99.90;;;;;;5034619;28;20033;-76
2022/01/31 12:17:39;;;;;;;17.88;2.00;;;7.20;99.90;;;;;;5050616;28;20044;-75
2022/01/31 12:20:15;;;;;;;14.07;2.22;;;7.10;99.90;;;;;;5060153;28;20046;-75
2022/01/31 12:22:44;;;;;;;22.95;3.03;;;7.20;99.90;;;;;;5068896;28;20040;-73
2022/01/31 12:25:22;;;;;;;21.15;2.20;;;7.30;99.90;;;;;;5066617;28;20475;-79
2022/01/31 12:27:48;;;;;;;25.38;2.85;;;7.40;99.90;;;;;;5063786;28;20044;-74
2022/01/31 12:30:29;;;;;;;19.42;3.45;;;7.40;99.90;;;;;;5068587;28;20040;-76
2022/01/31 12:32:55;;;;;;;25.13;2.70;;;7.60;99.90;;;;;;5083235;28;20056;-74
2022/01/31 12:35:34;;;;;;;27.70;3.47;;;7.70;99.90;;;;;;5067080;28;20040;-79
2022/01/31 12:38:01;;;;;;;29.60;3.90;;;7.80;99.90;;;;;;5051570;28;20055;-73
2022/01/31 12:40:33;;;;;;;28.05;3.85;;;7.90;99.90;;;;;;5070004;28;20051;-71
2022/01/31 12:45:31;;;;;;;15.93;2.38;;;8.10;99.90;;;;;;5095996;28;20045;-73
2022/01/31 12:48:14;;;;;;;20.88;2.58;;;8.10;99.90;;;;;;5065839;28;20063;-74
2022/01/31 12:51:02;;;;;;;18.15;2.80;;;8.10;99.90;;;;;;5067204;28;20048;-72
2022/01/31 12:53:42;;;;;;;19.42;3.03;;;8.20;99.90;;;;;;5069334;28;20036;-77
2022/01/31 12:56:12;;;;;;;23.90;3.55;;;8.20;99.90;;;;;;5051500;28;20403;-74
2022/01/31 12:58:45;;;;;;;19.77;2.70;;;8.20;99.90;;;;;;5057817;28;20506;-75
2022/01/31 13:01:24;;;;;;;22.73;2.38;;;8.20;99.90;;;;;;5046370;28;20399;-72
2022/01/31 13:04:00;;;;;;;17.00;2.33;;;8.20;99.90;;;;;;5069526;28;20127;-75
2022/01/31 13:06:35;;;;;;;18.83;2.35;;;8.20;99.90;;;;;;5063460;28;20064;-74
2022/01/31 13:09:06;;;;;;;25.33;3.53;;;8.20;99.90;;;;;;5069076;28;20075;-73
2022/01/31 13:11:32;;;;;;;23.25;2.67;;;8.20;99.90;;;;;;5056999;28;20048;-68
2022/01/31 13:14:07;;;;;;;12.93;2.33;;;8.20;99.90;;;;;;5058129;28;20064;-74
2022/01/31 13:16:42;;;;;;;12.85;1.67;;;8.20;99.90;;;;;;5050308;28;20048;-71
2022/01/31 13:19:20;;;;;;;16.65;1.60;;;8.10;99.90;;;;;;5064195;28;20124;-74
2022/01/31 13:21:47;;;;;;;15.38;2.38;;;8.10;99.90;;;;;;5069182;28;20039;-75
2022/01/31 13:24:13;;;;;;;26.30;3.75;;;8.00;99.90;;;;;;5061836;28;20067;-74